createdAt,value
2022-11-22T00:01:51.290Z,-0.97
2022-11-22T00:04:19.180Z,-1.22
2022-11-22T00:09:39.224Z,-1.35
2022-11-22T00:12:11.184Z,-1.27
2022-11-22T00:17:57.305Z,-1.18
2022-11-22T00:20:25.262Z,-1.12
2022-11-22T00:22:53.539Z,-1.05
2022-11-22T00:25:47.574Z,-1.04
2022-11-22T00:28:15.153Z,-0.77
2022-11-22T00:30:43.200Z,-0.65
2022-11-22T00:33:11.135Z,-0.72
2022-11-22T00:35:39.160Z,-0.86
2022-11-22T00:38:07.163Z,-1.03
2022-11-22T00:40:35.112Z,-0.84
2022-11-22T00:43:08.669Z,-0.90
2022-11-22T00:45:41.970Z,-0.93
2022-11-22T00:48:14.415Z,-0.93
2022-11-22T00:50:41.168Z,-0.98
2022-11-22T00:53:09.243Z,-1.20
2022-11-22T00:55:41.195Z,-0.90
2022-11-22T00:58:09.152Z,-0.94
2022-11-22T01:00:37.304Z,-0.88
2022-11-22T01:03:05.668Z,-0.97
2022-11-22T01:05:58.316Z,-1.18
2022-11-22T01:08:25.238Z,-0.88
2022-11-22T01:11:18.610Z,-0.95
2022-11-22T01:13:47.378Z,-0.81
2022-11-22T01:16:15.909Z,-1.04
2022-11-22T01:18:43.758Z,-1.11
2022-11-22T01:21:11.781Z,-1.11
2022-11-22T01:23:39.287Z,-1.11
2022-11-22T01:26:08.952Z,-1.07
2022-11-22T01:28:37.172Z,-1.05
2022-11-22T01:31:05.148Z,-1.03
2022-11-22T01:33:33.132Z,-1.22
2022-11-22T01:36:05.272Z,-1.20
2022-11-22T01:38:33.168Z,-1.01
2022-11-22T01:41:01.168Z,-1.04
2022-11-22T01:43:29.187Z,-1.01
2022-11-22T01:45:59.016Z,-1.07
2022-11-22T01:48:52.093Z,-1.10
2022-11-22T01:51:29.968Z,-1.04
2022-11-22T01:54:00.901Z,-1.01
2022-11-22T01:56:30.193Z,-1.08
2022-11-22T01:59:02.470Z,-0.90
2022-11-22T02:01:30.064Z,-1.00
2022-11-22T02:03:59.616Z,-1.17
2022-11-22T02:06:46.825Z,-1.05
2022-11-22T02:12:11.199Z,-0.66
2022-11-22T02:14:40.436Z,-0.80
2022-11-22T02:17:07.347Z,-1.03
2022-11-22T02:19:49.333Z,-0.91
2022-11-22T02:22:22.985Z,-1.00
2022-11-22T02:24:59.609Z,-0.97
2022-11-22T02:27:27.258Z,-1.17
2022-11-22T02:29:57.145Z,-0.98
2022-11-22T02:32:25.156Z,-0.98
2022-11-22T02:34:53.203Z,-1.08
2022-11-22T02:37:25.511Z,-0.95
2022-11-22T02:39:58.842Z,-1.08
2022-11-22T02:42:30.026Z,-1.01
2022-11-22T02:44:57.097Z,-0.90
2022-11-22T02:47:25.842Z,-1.04
2022-11-22T02:49:53.898Z,-0.84
2022-11-22T02:55:13.143Z,-0.84
2022-11-22T02:57:41.113Z,-1.03
2022-11-22T03:00:09.874Z,-0.93
2022-11-22T03:02:43.197Z,-1.07
2022-11-22T03:05:15.188Z,-1.15
2022-11-22T03:07:43.418Z,-0.77
2022-11-22T03:10:11.316Z,-0.90
2022-11-22T03:12:39.152Z,-1.04
2022-11-22T03:15:07.440Z,-0.84
2022-11-22T03:17:41.172Z,-0.83
2022-11-22T03:20:09.621Z,-0.90
2022-11-22T03:22:37.193Z,-0.88
2022-11-22T03:25:05.746Z,-0.74
2022-11-22T03:27:38.134Z,-0.87
2022-11-22T03:30:05.846Z,-1.08
2022-11-22T03:32:59.177Z,-1.11
2022-11-22T03:35:27.134Z,-1.07
2022-11-22T03:38:00.134Z,-0.87
2022-11-22T03:40:27.134Z,-1.05
2022-11-22T03:49:12.010Z,-0.77
2022-11-22T03:51:44.244Z,-0.57
2022-11-22T03:54:11.175Z,-0.83
2022-11-22T03:56:39.205Z,-0.93
2022-11-22T03:59:11.263Z,-0.90
2022-11-22T04:01:39.255Z,-0.62
2022-11-22T04:07:04.256Z,-0.50
2022-11-22T04:09:31.458Z,-0.45
2022-11-22T04:11:59.193Z,-0.25
2022-11-22T04:14:45.480Z,-0.53
2022-11-22T04:17:14.264Z,-0.60
2022-11-22T04:20:01.129Z,-0.67
2022-11-22T04:22:34.186Z,-0.41
2022-11-22T04:25:16.329Z,-0.57
2022-11-22T04:27:49.171Z,-0.63
2022-11-22T04:30:20.485Z,-0.53
2022-11-22T04:32:54.572Z,-0.56
2022-11-22T04:35:23.149Z,-0.55
2022-11-22T04:37:51.759Z,-0.56
2022-11-22T04:40:19.148Z,-0.50
2022-11-22T04:43:05.767Z,-0.56
2022-11-22T04:45:33.156Z,-0.50
2022-11-22T04:48:01.208Z,-0.50
2022-11-22T04:50:49.423Z,-0.62
2022-11-22T04:53:18.160Z,-0.57
2022-11-22T04:55:47.143Z,-0.53
2022-11-22T04:58:40.947Z,-0.39
2022-11-22T05:01:09.885Z,-0.44
2022-11-22T05:04:03.213Z,-0.41
2022-11-22T05:06:31.115Z,-0.37
2022-11-22T05:08:59.131Z,-0.41
2022-11-22T05:11:27.116Z,-0.29
2022-11-22T05:13:55.169Z,-0.27
2022-11-22T05:16:23.131Z,-0.19
2022-11-22T05:18:59.376Z,-0.11
2022-11-22T05:21:28.694Z,0.06
2022-11-22T05:23:57.238Z,-0.15
2022-11-22T05:26:53.262Z,-0.14
2022-11-22T05:29:26.282Z,-0.24
2022-11-22T05:31:53.201Z,-0.11
2022-11-22T05:34:25.143Z,-0.14
2022-11-22T05:36:53.329Z,0.14
2022-11-22T05:39:25.163Z,0.17
2022-11-22T05:41:56.194Z,0.17
2022-11-22T05:44:24.050Z,0.23
2022-11-22T05:46:51.264Z,0.27
2022-11-22T05:52:37.231Z,0.06
2022-11-22T05:55:08.610Z,0.09
2022-11-22T05:57:38.095Z,0.23
2022-11-22T06:00:09.356Z,0.11
2022-11-22T06:02:40.572Z,0.33
2022-11-22T06:05:11.100Z,0.24
2022-11-22T06:07:44.206Z,0.10
2022-11-22T06:10:11.400Z,0.20
2022-11-22T06:15:31.118Z,0.17
2022-11-22T06:18:03.176Z,0.14
2022-11-22T06:20:31.087Z,0.27
2022-11-22T06:23:03.172Z,0.17
2022-11-22T06:25:32.347Z,0.23
2022-11-22T06:27:59.833Z,0.21
2022-11-22T06:30:33.143Z,0.23
2022-11-22T06:33:01.213Z,0.09
2022-11-22T06:35:29.123Z,0.10
2022-11-22T06:38:00.620Z,0.21
2022-11-22T06:40:34.140Z,0.40
2022-11-22T06:43:01.096Z,0.30
2022-11-22T06:48:21.103Z,0.37
2022-11-22T06:50:58.842Z,0.26
2022-11-22T06:53:46.266Z,0.41
2022-11-22T06:56:18.484Z,0.37
2022-11-22T06:58:46.360Z,0.47
2022-11-22T07:01:24.430Z,0.33
2022-11-22T07:03:58.286Z,0.49
2022-11-22T07:06:34.219Z,0.38
2022-11-22T07:09:02.275Z,0.40
2022-11-22T07:11:31.281Z,0.33
2022-11-22T07:14:05.449Z,0.56
2022-11-22T07:16:35.783Z,0.38
2022-11-22T07:19:08.422Z,0.42
2022-11-22T07:21:37.177Z,0.45
2022-11-22T07:24:06.627Z,0.51
2022-11-22T07:26:35.495Z,0.48
2022-11-22T07:29:27.317Z,0.30
2022-11-22T07:32:20.738Z,0.34
2022-11-22T07:34:54.283Z,0.34
2022-11-22T07:37:26.112Z,0.38
2022-11-22T07:39:54.132Z,0.51
2022-11-22T07:42:25.325Z,0.44
2022-11-22T07:44:55.292Z,0.23
2022-11-22T07:47:23.334Z,0.44
2022-11-22T07:49:55.116Z,0.40
2022-11-22T07:52:23.100Z,0.41
2022-11-22T07:55:17.878Z,0.33
2022-11-22T07:57:46.916Z,0.30
2022-11-22T08:00:17.138Z,0.54
2022-11-22T08:02:46.993Z,0.59
2022-11-22T08:05:16.916Z,0.55
2022-11-22T08:07:52.910Z,0.44
2022-11-22T08:10:21.780Z,0.47
2022-11-22T08:12:49.090Z,0.37
2022-11-22T08:15:17.659Z,0.40
2022-11-22T08:17:45.165Z,0.56
2022-11-22T08:20:13.446Z,0.56
2022-11-22T08:22:46.166Z,0.54
2022-11-22T08:25:13.107Z,0.56
2022-11-22T08:27:42.789Z,0.65
2022-11-22T08:30:11.700Z,0.68
2022-11-22T08:32:39.087Z,0.55
2022-11-22T08:35:07.500Z,0.48
2022-11-22T08:37:40.397Z,0.72
2022-11-22T08:40:07.718Z,0.85
2022-11-22T08:42:40.134Z,0.85
2022-11-22T08:45:08.088Z,0.87
2022-11-22T08:47:35.113Z,0.61
2022-11-22T08:50:03.387Z,0.83
2022-11-22T08:52:31.105Z,0.69
2022-11-22T08:55:28.223Z,0.68
2022-11-22T08:57:59.411Z,0.73
2022-11-22T09:03:19.087Z,0.90
2022-11-22T09:12:15.090Z,1.13
2022-11-22T09:14:43.137Z,1.07
2022-11-22T09:17:18.065Z,0.89
2022-11-22T09:20:12.346Z,1.04
2022-11-22T09:22:39.596Z,0.97
2022-11-22T09:25:07.456Z,1.00
2022-11-22T09:27:35.694Z,0.90
2022-11-22T09:30:03.377Z,0.82
2022-11-22T09:32:36.426Z,0.89
2022-11-22T09:35:09.297Z,0.99
2022-11-22T09:37:37.125Z,0.90
2022-11-22T09:40:05.668Z,0.94
2022-11-22T09:42:59.345Z,0.94
2022-11-22T09:45:54.303Z,0.96
2022-11-22T09:51:37.590Z,0.87
2022-11-22T09:54:07.568Z,0.86
2022-11-22T09:56:36.419Z,0.89
2022-11-22T09:59:09.229Z,1.01
2022-11-22T10:02:25.622Z,1.10
2022-11-22T10:08:26.275Z,1.10
2022-11-22T10:11:37.953Z,1.24
2022-11-22T10:14:16.062Z,1.08
2022-11-22T10:16:56.328Z,1.16
2022-11-22T10:19:50.651Z,1.13
2022-11-22T10:22:24.289Z,1.24
2022-11-22T10:24:58.713Z,1.26
2022-11-22T10:30:25.621Z,1.32
2022-11-22T10:33:04.492Z,1.37
2022-11-22T10:35:39.422Z,1.28
2022-11-22T10:42:02.137Z,1.14
2022-11-22T10:47:54.040Z,1.34
2022-11-22T10:50:41.337Z,1.35
2022-11-22T10:53:18.108Z,1.19
2022-11-22T10:56:28.908Z,1.30
2022-11-22T10:59:15.704Z,1.28
2022-11-22T11:01:51.798Z,1.41
2022-11-22T11:04:21.035Z,1.23
2022-11-22T11:07:15.419Z,1.44
2022-11-22T11:12:45.801Z,1.41
2022-11-22T11:15:20.014Z,1.41
2022-11-22T11:18:06.424Z,1.52
2022-11-22T11:20:38.922Z,1.45
2022-11-22T11:23:17.048Z,1.51
2022-11-22T11:25:49.385Z,1.47
2022-11-22T11:28:19.539Z,1.45
2022-11-22T11:30:51.401Z,1.66
2022-11-22T11:33:25.290Z,1.41
2022-11-22T11:36:08.203Z,1.58
2022-11-22T11:38:52.539Z,1.61
2022-11-22T11:41:24.209Z,1.68
2022-11-22T11:44:02.877Z,1.59
2022-11-22T11:46:40.242Z,1.58
2022-11-22T11:49:14.606Z,1.51
2022-11-22T11:52:18.912Z,1.79
2022-11-22T11:54:52.091Z,1.94
2022-11-22T11:57:31.242Z,1.59
2022-11-22T12:00:01.805Z,1.59
2022-11-22T12:02:38.793Z,1.62
2022-11-22T12:05:28.836Z,1.62
2022-11-22T12:08:02.414Z,1.75
2022-11-22T12:10:49.735Z,1.63
2022-11-22T12:16:44.704Z,1.63
2022-11-22T12:19:26.643Z,1.85
2022-11-22T12:22:03.062Z,1.76
2022-11-22T12:24:57.301Z,1.65
2022-11-22T12:27:27.155Z,1.54
2022-11-22T12:29:55.158Z,1.42
2022-11-22T12:32:40.255Z,1.65
2022-11-22T12:35:23.655Z,1.76
2022-11-22T12:38:01.709Z,1.85
2022-11-22T12:40:38.485Z,1.85
2022-11-22T12:43:17.125Z,1.59
2022-11-22T12:45:51.056Z,1.66
2022-11-22T12:51:57.489Z,1.75
2022-11-22T12:57:40.844Z,1.63
2022-11-22T13:00:16.706Z,1.75
2022-11-22T13:02:59.141Z,1.94
2022-11-22T13:05:57.983Z,1.73
2022-11-22T13:08:35.760Z,1.86
2022-11-22T13:14:34.338Z,1.83
2022-11-22T13:17:06.507Z,1.62
2022-11-22T13:19:46.377Z,1.56
2022-11-22T13:22:33.120Z,1.82
2022-11-22T13:28:40.072Z,1.96
2022-11-22T13:31:17.159Z,1.99
2022-11-22T13:33:57.570Z,1.93
2022-11-22T13:36:33.297Z,1.96
2022-11-22T13:39:15.882Z,2.10
2022-11-22T13:42:02.432Z,1.83
2022-11-22T13:44:31.259Z,2.06
2022-11-22T13:47:04.545Z,2.24
2022-11-22T13:49:49.223Z,2.14
2022-11-22T13:52:22.092Z,2.24
2022-11-22T13:54:56.847Z,2.40
2022-11-22T13:57:43.509Z,2.20
2022-11-22T14:00:42.873Z,2.07
2022-11-22T14:03:40.242Z,2.28
2022-11-22T14:06:28.596Z,2.46
2022-11-22T14:09:36.877Z,2.49
2022-11-22T14:12:16.140Z,2.37
2022-11-22T14:15:19.208Z,2.42
2022-11-22T14:18:10.443Z,2.13
2022-11-22T14:21:09.008Z,2.31
2022-11-22T14:24:11.453Z,2.25
2022-11-22T14:27:20.602Z,2.31
2022-11-22T14:30:12.849Z,1.94
2022-11-22T14:32:47.055Z,2.13
2022-11-22T14:35:18.636Z,2.34
2022-11-22T14:37:59.548Z,2.07
2022-11-22T14:40:36.187Z,2.18
2022-11-22T14:43:21.633Z,2.04
2022-11-22T14:45:55.276Z,2.17
2022-11-22T14:48:33.583Z,2.18
2022-11-22T14:51:04.072Z,1.93
2022-11-22T14:53:45.728Z,2.00
2022-11-22T14:56:30.116Z,1.96
2022-11-22T14:59:28.370Z,2.01
2022-11-22T15:02:24.469Z,2.21
2022-11-22T15:09:12.786Z,1.87
2022-11-22T15:09:19.630Z,1.93
2022-11-22T15:11:42.763Z,2.00
2022-11-22T15:14:34.425Z,1.83
2022-11-22T15:58:13.559Z,1.99
2022-11-22T16:00:44.219Z,2.13
2022-11-22T16:03:22.798Z,2.04
2022-11-22T16:06:07.208Z,1.90
2022-11-22T16:08:49.334Z,1.87
2022-11-22T16:14:40.314Z,2.00
2022-11-22T16:17:30.502Z,1.86
2022-11-22T16:20:18.970Z,1.97
2022-11-22T16:23:13.852Z,2.10
2022-11-22T16:25:51.680Z,1.93
2022-11-22T16:28:31.584Z,2.11
2022-11-22T16:31:24.599Z,2.11
2022-11-22T16:33:54.584Z,2.14
2022-11-22T16:36:24.861Z,2.01
2022-11-22T16:38:58.156Z,2.04
2022-11-22T16:41:27.064Z,1.86
2022-11-22T16:44:03.905Z,1.85
2022-11-22T16:46:31.121Z,1.93
2022-11-22T16:48:59.221Z,1.56
2022-11-22T16:51:29.355Z,1.82
2022-11-22T16:54:08.021Z,1.76
2022-11-22T16:56:37.051Z,1.86
2022-11-22T16:59:30.529Z,1.73
2022-11-22T17:01:59.740Z,1.65
2022-11-22T17:04:52.682Z,1.51
2022-11-22T17:07:21.693Z,1.56
2022-11-22T17:10:13.307Z,1.56
2022-11-22T17:12:42.379Z,1.76
2022-11-22T17:15:13.143Z,1.90
2022-11-22T17:17:41.116Z,1.96
2022-11-22T17:20:09.553Z,1.91
2022-11-22T17:22:39.250Z,1.75
2022-11-22T17:25:18.342Z,1.66
2022-11-22T17:27:49.044Z,1.65
2022-11-22T17:30:20.547Z,1.80
2022-11-22T17:33:14.178Z,1.73
2022-11-22T17:35:41.383Z,1.68
2022-11-22T17:38:11.414Z,1.93
2022-11-22T17:40:39.306Z,1.75
2022-11-22T17:43:07.118Z,1.93
2022-11-22T17:45:42.440Z,1.91
2022-11-22T17:48:12.623Z,1.75
2022-11-22T17:50:41.179Z,1.72
2022-11-22T17:53:09.242Z,1.85
2022-11-22T17:56:02.685Z,1.94
2022-11-22T17:58:31.451Z,2.01
2022-11-22T18:01:20.220Z,2.13
2022-11-22T18:03:48.502Z,1.94
2022-11-22T18:09:11.148Z,1.99
2022-11-22T18:11:39.133Z,1.76
2022-11-22T18:14:07.203Z,1.91
2022-11-22T18:16:35.208Z,1.99
2022-11-22T18:19:07.151Z,2.11
2022-11-22T18:21:35.112Z,1.83
2022-11-22T18:24:03.275Z,1.97
2022-11-22T18:26:39.850Z,2.11
2022-11-22T18:32:28.002Z,1.52
2022-11-22T18:34:59.263Z,1.61
2022-11-22T18:37:27.560Z,1.87
2022-11-22T18:40:20.702Z,1.50
2022-11-22T18:42:56.498Z,1.41
2022-11-22T18:45:50.571Z,1.42
2022-11-22T18:48:19.103Z,1.16
2022-11-22T18:51:16.312Z,1.27
2022-11-22T18:53:43.237Z,1.52
2022-11-22T18:56:13.096Z,1.40
2022-11-22T18:58:41.114Z,1.31
2022-11-22T19:01:14.573Z,1.21
2022-11-22T19:03:44.005Z,1.38
2022-11-22T19:06:19.199Z,1.48
2022-11-22T19:08:47.501Z,1.27
2022-11-22T19:11:16.147Z,1.55
2022-11-22T19:13:44.708Z,1.35
2022-11-22T19:16:21.775Z,1.62
2022-11-22T19:18:50.059Z,1.38
2022-11-22T19:21:22.572Z,1.19
2022-11-22T19:23:51.155Z,1.45
2022-11-22T19:26:21.934Z,1.20
2022-11-22T19:28:50.312Z,1.08
2022-11-22T19:31:24.763Z,1.34
2022-11-22T19:33:53.456Z,1.35
2022-11-22T19:36:26.433Z,1.54
2022-11-22T19:38:59.262Z,1.27
2022-11-22T19:41:27.235Z,1.13
2022-11-22T19:43:55.869Z,1.28
2022-11-22T19:46:24.023Z,1.44
2022-11-22T19:48:57.939Z,1.50
2022-11-22T19:51:26.597Z,1.52
2022-11-22T19:53:59.589Z,1.17
2022-11-22T19:56:32.354Z,1.13
2022-11-22T19:59:25.125Z,1.00
2022-11-22T20:01:53.099Z,1.08
2022-11-22T20:04:25.231Z,1.30
2022-11-22T20:06:53.203Z,1.20
2022-11-22T20:09:22.242Z,1.14
2022-11-22T20:11:49.230Z,0.96
2022-11-22T20:14:17.248Z,0.94
2022-11-22T20:17:09.099Z,1.30
2022-11-22T20:19:37.457Z,1.03
2022-11-22T20:22:09.098Z,1.24
2022-11-22T20:24:37.112Z,1.24
2022-11-22T20:27:10.106Z,1.24
2022-11-22T20:29:37.140Z,1.23
2022-11-22T20:32:06.209Z,1.20
2022-11-22T20:34:34.190Z,1.35
2022-11-22T20:37:02.174Z,1.11
2022-11-22T20:39:35.320Z,0.92
2022-11-22T20:42:33.132Z,0.92
2022-11-22T20:45:19.196Z,0.87
2022-11-22T20:47:47.151Z,0.82
2022-11-22T20:50:15.307Z,0.87
2022-11-22T20:52:43.155Z,0.82
2022-11-22T20:55:11.155Z,0.87
2022-11-22T20:58:03.230Z,0.87
2022-11-22T21:00:31.100Z,0.94
2022-11-22T21:03:04.152Z,1.04
2022-11-22T21:05:31.133Z,1.03
2022-11-22T21:08:05.465Z,0.99
2022-11-22T21:11:13.848Z,1.28
2022-11-22T21:13:42.230Z,1.28
2022-11-22T21:16:35.094Z,1.37
2022-11-22T21:19:07.086Z,1.23
2022-11-22T21:21:41.244Z,1.26
2022-11-22T21:24:13.701Z,1.38
2022-11-22T21:26:41.197Z,1.50
2022-11-22T21:29:17.972Z,1.45
2022-11-22T21:32:11.257Z,1.56
2022-11-22T21:34:43.181Z,1.59
2022-11-22T21:37:35.119Z,1.61
2022-11-22T21:40:03.711Z,1.51
2022-11-22T21:42:31.126Z,1.52
2022-11-22T21:44:59.643Z,1.54
2022-11-22T21:47:27.201Z,1.47
2022-11-22T21:49:55.189Z,1.28
2022-11-22T21:52:23.154Z,1.42
2022-11-22T21:54:53.765Z,1.31
2022-11-22T21:57:21.122Z,1.47
2022-11-22T21:59:49.166Z,1.61
2022-11-22T22:02:17.244Z,1.66
2022-11-22T22:04:49.115Z,1.61
2022-11-22T22:07:36.708Z,1.50
2022-11-22T22:10:09.483Z,1.54
2022-11-22T22:15:31.175Z,1.45
2022-11-22T22:18:23.301Z,1.52
2022-11-22T22:21:02.115Z,1.65
2022-11-22T22:23:35.619Z,1.59
2022-11-22T22:26:08.270Z,1.69
2022-11-22T22:28:41.423Z,1.72
2022-11-22T22:31:17.019Z,1.63
2022-11-22T22:33:45.915Z,1.62
2022-11-22T22:36:14.017Z,1.72
2022-11-22T22:38:41.731Z,1.79
2022-11-22T22:44:03.111Z,1.78
2022-11-22T22:46:31.151Z,1.73
2022-11-22T22:49:00.126Z,1.75
2022-11-22T22:51:33.664Z,1.68
2022-11-22T22:54:01.486Z,1.59
2022-11-22T22:56:56.204Z,1.61
2022-11-22T22:59:23.198Z,1.72
2022-11-22T23:01:51.148Z,1.68
2022-11-22T23:04:19.144Z,1.69
2022-11-22T23:06:52.296Z,1.70
2022-11-22T23:09:19.285Z,1.68
2022-11-22T23:12:07.854Z,1.70
2022-11-22T23:14:35.498Z,1.65
2022-11-22T23:17:27.289Z,1.68
2022-11-22T23:20:00.163Z,1.70
2022-11-22T23:22:33.104Z,1.76
2022-11-22T23:25:01.168Z,1.83
2022-11-22T23:27:34.200Z,1.82
2022-11-22T23:30:01.145Z,1.96
2022-11-22T23:32:31.968Z,1.97
2022-11-22T23:34:59.221Z,1.87
2022-11-22T23:37:27.161Z,1.91
2022-11-22T23:39:55.083Z,1.94
2022-11-22T23:45:15.108Z,1.91
2022-11-22T23:47:43.160Z,1.87
2022-11-22T23:50:11.081Z,1.97
2022-11-22T23:52:39.121Z,2.01
2022-11-22T23:55:07.466Z,2.03
2022-11-22T23:57:35.548Z,2.01
